地図

経路データ

SID SEASON NUMBER BASIN SUBBASIN NAME ISO_TIME NATURE LAT LON WMO_WIND WMO_PRES WMO_AGENCY TRACK_TYPE DIST2LAND LANDFALL IFLAG USA_AGENCY USA_ATCF_ID USA_LAT USA_LON USA_RECORD USA_STATUS USA_WIND USA_PRES USA_SSHS USA_R34_NE USA_R34_SE USA_R34_SW USA_R34_NW USA_R50_NE USA_R50_SE USA_R50_SW USA_R50_NW USA_R64_NE USA_R64_SE USA_R64_SW USA_R64_NW USA_POCI USA_ROCI USA_RMW USA_EYE TOKYO_LAT TOKYO_LON TOKYO_GRADE TOKYO_WIND TOKYO_PRES TOKYO_R50_DIR TOKYO_R50_LONG TOKYO_R50_SHORT TOKYO_R30_DIR TOKYO_R30_LONG TOKYO_R30_SHORT TOKYO_LAND CMA_LAT CMA_LON CMA_CAT CMA_WIND CMA_PRES HKO_LAT HKO_LON HKO_CAT HKO_WIND HKO_PRES NEWDELHI_LAT NEWDELHI_LON NEWDELHI_GRADE NEWDELHI_WIND NEWDELHI_PRES NEWDELHI_CI NEWDELHI_DP NEWDELHI_POCI REUNION_LAT REUNION_LON REUNION_TYPE REUNION_WIND REUNION_PRES REUNION_TNUM REUNION_CI REUNION_RMW REUNION_R34_NE REUNION_R34_SE REUNION_R34_SW REUNION_R34_NW REUNION_R50_NE REUNION_R50_SE REUNION_R50_SW REUNION_R50_NW REUNION_R64_NE REUNION_R64_SE REUNION_R64_SW REUNION_R64_NW BOM_LAT BOM_LON BOM_TYPE BOM_WIND BOM_PRES BOM_TNUM BOM_CI BOM_RMW BOM_R34_NE BOM_R34_SE BOM_R34_SW BOM_R34_NW BOM_R50_NE BOM_R50_SE BOM_R50_SW BOM_R50_NW BOM_R64_NE BOM_R64_SE BOM_R64_SW BOM_R64_NW BOM_ROCI BOM_POCI BOM_EYE BOM_POS_METHOD BOM_PRES_METHOD NADI_LAT NADI_LON NADI_CAT NADI_WIND NADI_PRES WELLINGTON_LAT WELLINGTON_LON WELLINGTON_WIND WELLINGTON_PRES DS824_LAT DS824_LON DS824_STAGE DS824_WIND DS824_PRES TD9636_LAT TD9636_LON TD9636_STAGE TD9636_WIND TD9636_PRES TD9635_LAT TD9635_LON TD9635_WIND TD9635_PRES TD9635_ROCI NEUMANN_LAT NEUMANN_LON NEUMANN_CLASS NEUMANN_WIND NEUMANN_PRES MLC_LAT MLC_LON MLC_CLASS MLC_WIND MLC_PRES USA_GUST BOM_GUST BOM_GUST_PER REUNION_GUST REUNION_GUST_PER USA_SEAHGT USA_SEARAD_NE USA_SEARAD_SE USA_SEARAD_SW USA_SEARAD_NW STORM_SPEED STORM_DIR
1984361S08178 1985 123 SP MM NOT_NAMED 1984-12-26 00:00:00 NR -8.45000 177.600 35 995 wellington main 905 886 ________O_O___ -1 -8.40000 178.400 35 995 -8.50000 176.800 1 7 90
1984361S08178 1985 123 SP MM NOT_NAMED 1984-12-26 03:00:00 NR -8.45284 177.968 main 884 877 ________P_P___ -1 -8.39065 178.547 37 993 -8.51502 177.389 1 7 96
1984361S08178 1985 123 SP MM NOT_NAMED 1984-12-26 06:00:00 TS -8.52323 178.289 main 877 872 O_______P_P_O_ jtwc_sh SH071985 -8.70000 178.200 TD 25 -1 -8.39503 178.695 40 991 -8.53359 177.942 1 -8.70000 178.200 TC 25 6 92
1984361S08178 1985 123 SP MM NOT_NAMED 1984-12-26 09:00:00 TS -8.47076 178.595 main 872 870 P_______P_P_P_ SH071985 -8.42506 178.515 TD 27 -1 -8.42688 178.846 42 989 -8.56033 178.425 1 -8.42506 178.515 TC 27 6 78
1984361S08178 1985 123 SP MM NOT_NAMED 1984-12-26 12:00:00 TS -8.40000 178.857 45 987 wellington main 878 876 O_______O_O_O_ jtwc_sh SH071985 -8.20000 178.800 TD 30 -1 -8.50000 179.000 45 987 -8.60000 178.800 2 -8.20000 178.800 TC 30 5 76
1984361S08178 1985 123 SP MM NOT_NAMED 1984-12-26 15:00:00 TS -8.35161 179.066 main 876 875 P_______P_P_P_ SH071985 -8.06248 179.030 TD 32 -1 -8.62376 179.158 43 987 -8.65771 179.047 2 -8.06248 179.030 TC 32 4 87
1984361S08178 1985 123 SP MM NOT_NAMED 1984-12-26 18:00:00 TS -8.38238 179.228 main 875 875 O_______P_P_O_ jtwc_sh SH071985 -8.00000 179.200 TS 35 0 -8.79001 179.315 42 988 -8.73951 179.198 2 -8.00000 179.200 TC 35 3 106
1984361S08178 1985 123 SP MM NOT_NAMED 1984-12-26 21:00:00 TS -8.43320 179.349 main 875 863 P_______P_P_P_ SH071985 -7.94748 179.315 TS 37 0 -8.98626 179.464 41 989 -8.85158 179.300 2 -7.94748 179.315 TC 37 3 127
1984361S08178 1985 123 SP MM NOT_NAMED 1984-12-27 00:00:00 TS -8.55000 179.450 40 990 wellington main 862 840 O_______O_O_O_ jtwc_sh SH071985 -8.00000 179.400 TS 40 0 -9.20000 179.600 40 990 -9.00000 179.400 2 -8.00000 179.400 TC 40 4 144
1984361S08178 1985 123 SP MM NOT_NAMED 1984-12-27 03:00:00 TS -8.72115 179.555 main 840 806 P_______P_P_P_ SH071985 -8.17498 179.478 TS 42 0 -9.36998 179.711 37 991 -9.16465 179.556 2 -8.17498 179.478 TC 42 5 152
1984361S08178 1985 123 SP MM NOT_NAMED 1984-12-27 06:00:00 TS -8.98186 179.682 main 806 772 O_______P_P_O_ jtwc_sh SH071985 -8.50000 179.600 TS 45 0 -9.55999 179.808 35 993 -9.36744 179.720 2 -8.50000 179.600 TC 45 7 153
1984361S08178 1985 123 SP MM NOT_NAMED 1984-12-27 09:00:00 TS -9.32914 179.864 main 772 727 P_______P_P_P_ SH071985 -8.95503 179.827 TS 45 0 -9.79499 179.901 32 995 -9.61150 179.900 2 -8.95503 179.827 TC 45 9 153
1984361S08178 1985 123 SP MM NOT_NAMED 1984-12-27 12:00:00 TS -9.75000 180.075 30 997 wellington main 728 673 O_______O_O_O_ jtwc_sh SH071985 -9.50000 -179.900 TS 45 0 -10.1000 180.000 30 997 -9.90000 -179.900 2 -9.50000 -179.900 TC 45 10 154
1984361S08178 1985 123 SP MM NOT_NAMED 1984-12-27 15:00:00 TS -10.2114 180.295 main 673 619 P_______P_P_P_ SH071985 -10.0425 -179.642 TS 45 0 -10.4919 -179.888 30 997 -10.2686 -179.648 2 -10.0425 -179.642 TC 45 10 154
1984361S08178 1985 123 SP MM NOT_NAMED 1984-12-27 18:00:00 TS -10.6904 180.533 main 619 577 O_______P_P_O_ jtwc_sh SH071985 -10.6000 -179.400 TS 45 0 -10.9551 -179.766 30 997 -10.6727 -179.378 2 -10.6000 -179.400 TC 45 11 154
1984361S08178 1985 123 SP MM NOT_NAMED 1984-12-27 21:00:00 TS -11.1709 180.765 main 568 528 P_______P_P_P_ SH071985 -11.1500 -179.192 TS 42 0 -11.4657 -179.635 30 997 -11.0655 -179.120 2 -11.1500 -179.192 TC 42 10 154
1984361S08178 1985 123 SP MM NOT_NAMED 1984-12-28 00:00:00 TS -11.6308 180.992 30 997 wellington main 528 490 O_______O_O_O_ jtwc_sh SH071985 -11.7000 -179.000 TS 40 0 -12.0000 -179.500 30 997 -11.4000 -178.900 2 -11.7000 -179.000 TC 40 10 154
1984361S08178 1985 123 SP MM NOT_NAMED 1984-12-28 03:00:00 TS -12.0718 181.213 main 479 451 P_________P_P_ SH071985 -12.3025 -178.800 TS 37 0 -11.6105 -178.761 2 -12.3025 -178.800 TC 37 9 155
1984361S08178 1985 123 SP MM NOT_NAMED 1984-12-28 06:00:00 TS -12.4533 181.379 main 444 428 O_________P_O_ jtwc_sh SH071985 -12.8000 -178.600 TS 35 0 -11.7598 -178.662 2 -12.8000 -178.600 TC 35 7 153
1984361S08178 1985 123 SP MM NOT_NAMED 1984-12-28 09:00:00 TS -12.6964 181.534 main 428 422 P_________P_P_ SH071985 -13.1050 -178.407 TS 35 0 -11.8792 -178.583 2 -13.1050 -178.407 TC 32 4 135
1984361S08178 1985 123 SP MM NOT_NAMED 1984-12-28 12:00:00 TS -12.7636 181.691 main 427 427 O_________O_O_ jtwc_sh SH071985 -13.2000 -178.200 TS 35 0 -12.0000 -178.500 2 -13.2000 -178.200 TC 30 3 94
1984361S08178 1985 123 SP MM NOT_NAMED 1984-12-28 15:00:00 TS -12.7172 181.872 main 447 447 P_________P_P_ SH071985 -13.0950 -177.942 TS 32 -1 -12.1467 -178.397 2 -13.1026 -177.960 TC 30 4 72
1984361S08178 1985 123 SP MM NOT_NAMED 1984-12-28 18:00:00 TS -12.6504 182.053 main 457 457 O_________P_O_ jtwc_sh SH071985 -12.9000 -177.700 TD 30 -1 -12.3177 -178.275 2 -12.9000 -177.700 TC 30 3 75
1984361S08178 1985 123 SP MM NOT_NAMED 1984-12-28 21:00:00 TS -12.6386 182.166 main 473 463 P_________P___ SH071985 -12.7725 -177.528 TD 27 -1 -12.5048 -178.141 2 TC 2 102
1984361S08178 1985 123 SP MM NOT_NAMED 1984-12-29 00:00:00 TS -12.7000 182.300 main 469 O_________O___ jtwc_sh SH071985 -12.7000 -177.400 TD 25 -1 -12.7000 -178.000 1 3 115

デジタル台風データ・検索

IBTrACS Databaseについて

本データベースは、米国NOAAが公開する1842年以降の世界の熱帯低気圧のベストトラックデータアーカイブInternational Best Track Archive for Climate Stewardship (IBTrACS)を、ウェブで閲覧しやすい形式に変換したものです。

最終更新日:2021-11-26